< < Back
Terminal Aerodrome Forecast


Current Version              Previous Versions:   1  2  3  4  5  6  7  8  9  

Terminal Aerodrome Forecast

890
FTUS42 KMLB 020500
TAFMCO
TAF
KMCO 020520Z 0206/0306 VRB03KT P6SM FEW250
     FM021500 09005KT P6SM SCT030
     FM021900 10009KT P6SM SCT050=



Latest METAR

095
SAUS70 KWBC 021200 RRM
MTRMCO
METAR KMCO 021153Z 00000KT 10SM FEW030 SCT250 26/24 A3008 RMK AO2 SLP184
T02560244 10261 20239 53010


USA.gov is the U.S. government's official web portal to all federal, state and local government web resources and services.